createdAt,value
2018-09-10T00:00:11.231Z,0.00
2018-09-10T00:01:11.257Z,0.00
2018-09-10T00:02:11.270Z,0.00
2018-09-10T00:03:11.299Z,0.00
2018-09-10T00:04:11.310Z,0.00
2018-09-10T00:05:11.335Z,0.00
2018-09-10T00:06:11.350Z,0.00
2018-09-10T00:07:11.374Z,0.00
2018-09-10T00:08:11.391Z,0.00
2018-09-10T00:09:11.413Z,0.00
2018-09-10T00:10:11.427Z,0.00
2018-09-10T00:11:11.452Z,0.00
2018-09-10T00:12:11.466Z,0.00
2018-09-10T00:13:11.480Z,0.00
2018-09-10T00:14:11.519Z,0.00
2018-09-10T00:15:11.520Z,0.00
2018-09-10T00:16:11.546Z,0.00
2018-09-10T00:17:11.558Z,0.00
2018-09-10T00:18:11.584Z,0.00
2018-09-10T00:19:11.599Z,0.00
2018-09-10T00:20:11.625Z,0.00
2018-09-10T00:21:11.651Z,0.00
2018-09-10T00:22:11.764Z,0.00
2018-09-10T00:23:11.677Z,0.00
2018-09-10T00:24:11.703Z,0.00
2018-09-10T00:25:11.716Z,0.00
2018-09-10T00:26:11.742Z,0.00
2018-09-10T00:27:11.756Z,0.00
2018-09-10T00:28:11.783Z,0.00
2018-09-10T00:29:11.808Z,0.00
2018-09-10T00:30:11.810Z,0.00
2018-09-10T00:31:11.835Z,0.00
2018-09-10T00:32:11.848Z,0.00
2018-09-10T00:33:11.873Z,0.00
2018-09-10T00:34:11.887Z,0.00
2018-09-10T00:35:11.913Z,0.00
2018-09-10T00:36:11.940Z,0.00
2018-09-10T00:37:11.952Z,0.00
2018-09-10T00:38:11.967Z,0.00
2018-09-10T00:39:11.992Z,0.00
2018-09-10T00:40:12.006Z,0.00
2018-09-10T00:41:12.032Z,0.00
2018-09-10T00:42:12.051Z,0.00
2018-09-10T00:43:12.072Z,0.00
2018-09-10T00:44:12.084Z,0.00
2018-09-10T00:45:12.110Z,0.00
2018-09-10T00:46:12.127Z,0.00
2018-09-10T00:47:12.136Z,0.00
2018-09-10T00:48:12.163Z,0.00
2018-09-10T00:49:12.178Z,0.00
2018-09-10T00:50:12.204Z,0.00
2018-09-10T00:51:12.229Z,0.00
2018-09-10T00:52:12.241Z,0.00
2018-09-10T00:53:12.256Z,0.00
2018-09-10T00:54:12.282Z,0.00
2018-09-10T00:55:12.295Z,0.00
2018-09-10T00:56:12.326Z,0.00
2018-09-10T00:57:12.334Z,0.00
2018-09-10T00:58:12.347Z,0.00
2018-09-10T00:59:12.374Z,0.00
2018-09-10T01:00:12.391Z,0.00
2018-09-10T01:01:12.414Z,0.00
2018-09-10T01:02:12.429Z,0.00
2018-09-10T01:03:12.453Z,0.00
2018-09-10T01:04:12.466Z,0.00
2018-09-10T01:05:12.493Z,0.00
2018-09-10T01:06:12.507Z,0.00
2018-09-10T01:07:12.520Z,0.00
2018-09-10T01:08:12.544Z,0.00
2018-09-10T01:09:12.558Z,0.00
2018-09-10T01:10:12.584Z,0.00
2018-09-10T01:11:12.604Z,0.00
2018-09-10T01:12:12.624Z,0.00
2018-09-10T01:13:12.638Z,0.00
2018-09-10T01:14:12.664Z,0.00
2018-09-10T01:15:12.678Z,0.00
2018-09-10T01:16:12.690Z,0.00
2018-09-10T01:17:12.716Z,0.00
2018-09-10T01:18:12.729Z,0.00
2018-09-10T01:19:12.756Z,0.00
2018-09-10T01:20:12.769Z,0.00
2018-09-10T01:21:12.796Z,0.00
2018-09-10T01:22:12.809Z,0.00
2018-09-10T01:23:12.835Z,0.00
2018-09-10T01:24:12.848Z,0.00
2018-09-10T01:25:12.873Z,0.00
2018-09-10T01:26:12.893Z,0.00
2018-09-10T01:27:12.900Z,0.00
2018-09-10T01:28:12.926Z,0.00
2018-09-10T01:29:12.944Z,0.00
2018-09-10T01:30:12.967Z,0.00
2018-09-10T01:31:12.979Z,0.00
2018-09-10T01:32:13.005Z,0.00
2018-09-10T01:33:13.020Z,0.00
2018-09-10T01:34:13.045Z,0.00
2018-09-10T01:35:13.058Z,0.00
2018-09-10T01:36:13.084Z,0.00
2018-09-10T01:37:13.099Z,0.00
2018-09-10T01:38:13.114Z,0.00
2018-09-10T01:39:13.150Z,0.00
2018-09-10T01:40:13.151Z,0.00
2018-09-10T01:41:13.178Z,0.00
2018-09-10T01:42:13.189Z,0.00
2018-09-10T01:43:13.216Z,0.00
2018-09-10T01:44:13.230Z,0.00
2018-09-10T01:45:13.256Z,0.00
2018-09-10T01:46:13.269Z,0.00
2018-09-10T01:47:13.296Z,0.00
2018-09-10T01:48:13.309Z,0.00
2018-09-10T01:49:13.322Z,0.00
2018-09-10T01:50:13.348Z,0.00
2018-09-10T01:51:13.363Z,0.00
2018-09-10T01:52:13.393Z,0.00
2018-09-10T01:53:13.400Z,0.00
2018-09-10T01:54:13.442Z,0.00
2018-09-10T01:55:13.441Z,0.00
2018-09-10T01:56:13.467Z,0.00
2018-09-10T01:57:13.479Z,0.00
2018-09-10T01:58:13.504Z,0.00
2018-09-10T01:59:13.519Z,0.00
2018-09-10T02:00:13.545Z,0.00
2018-09-10T02:01:13.570Z,0.00
2018-09-10T02:02:13.571Z,0.00
2018-09-10T02:03:13.598Z,0.00
2018-09-10T02:04:13.611Z,0.00
2018-09-10T02:05:13.636Z,0.00
2018-09-10T02:06:13.651Z,0.00
2018-09-10T02:07:13.677Z,0.00
2018-09-10T02:08:13.691Z,0.00
2018-09-10T02:09:13.731Z,0.00
2018-09-10T02:10:13.729Z,0.00
2018-09-10T02:11:13.756Z,0.00
2018-09-10T02:12:13.768Z,0.00
2018-09-10T02:13:13.797Z,0.00
2018-09-10T02:14:13.809Z,0.00
2018-09-10T02:15:13.835Z,0.00
2018-09-10T02:16:13.860Z,0.00
2018-09-10T02:17:13.947Z,0.00
2018-09-10T02:18:13.887Z,0.00
2018-09-10T02:19:13.900Z,0.00
2018-09-10T02:20:13.932Z,0.00
2018-09-10T02:21:13.942Z,0.00
2018-09-10T02:22:13.966Z,0.00
2018-09-10T02:23:13.982Z,0.00
2018-09-10T02:24:14.006Z,0.00
2018-09-10T02:25:14.022Z,0.00
2018-09-10T02:26:14.047Z,0.00
2018-09-10T02:27:14.091Z,0.00
2018-09-10T02:28:14.084Z,0.00
2018-09-10T02:29:14.178Z,0.00
2018-09-10T02:30:14.124Z,0.00
2018-09-10T02:31:14.138Z,0.00
2018-09-10T02:32:14.163Z,0.00
2018-09-10T02:33:14.177Z,0.00
2018-09-10T02:34:14.193Z,0.00
2018-09-10T02:35:14.216Z,0.00
2018-09-10T02:36:14.233Z,0.00
2018-09-10T02:37:14.255Z,0.00
2018-09-10T02:38:14.269Z,0.00
2018-09-10T02:39:14.294Z,0.00
2018-09-10T02:40:14.309Z,0.00
2018-09-10T02:41:14.334Z,0.00
2018-09-10T02:42:14.347Z,0.00
2018-09-10T02:43:14.373Z,0.00
2018-09-10T02:44:14.399Z,0.00
2018-09-10T02:45:14.414Z,0.00
2018-09-10T02:46:14.427Z,0.00
2018-09-10T02:47:14.452Z,0.00
2018-09-10T02:48:14.466Z,0.00
2018-09-10T02:49:14.495Z,0.00
2018-09-10T02:50:14.505Z,0.00
2018-09-10T02:51:14.531Z,0.00
2018-09-10T02:52:14.552Z,0.00
2018-09-10T02:53:14.572Z,0.00
2018-09-10T02:54:14.585Z,0.00
2018-09-10T02:55:14.688Z,0.00
2018-09-10T02:56:14.624Z,0.00
2018-09-10T02:57:14.639Z,0.00
2018-09-10T02:58:14.662Z,0.00
2018-09-10T02:59:14.678Z,0.00
2018-09-10T03:00:14.703Z,0.00
2018-09-10T03:01:14.717Z,0.00
2018-09-10T03:02:14.741Z,0.00
2018-09-10T03:03:14.757Z,0.00
2018-09-10T03:04:14.782Z,0.00
2018-09-10T03:05:14.794Z,0.00
2018-09-10T03:06:14.821Z,0.00
2018-09-10T03:07:14.839Z,0.00
2018-09-10T03:08:14.860Z,0.00
2018-09-10T03:09:14.874Z,0.00
2018-09-10T03:10:14.900Z,0.00
2018-09-10T03:11:14.917Z,0.00
2018-09-10T03:12:14.945Z,0.00
2018-09-10T03:13:14.953Z,0.00
2018-09-10T03:14:14.968Z,0.00
2018-09-10T03:15:14.992Z,0.00
2018-09-10T03:16:15.005Z,0.00
2018-09-10T03:17:15.032Z,0.00
2018-09-10T03:18:15.045Z,0.00
2018-09-10T03:19:15.073Z,0.00
2018-09-10T03:20:15.084Z,0.00
2018-09-10T03:21:15.109Z,0.00
2018-09-10T03:22:15.125Z,0.00
2018-09-10T03:23:15.150Z,0.00
2018-09-10T03:24:15.257Z,0.00
2018-09-10T03:25:15.201Z,0.00
2018-09-10T03:26:15.203Z,0.00
2018-09-10T03:27:15.229Z,0.00
2018-09-10T03:28:15.241Z,0.00
2018-09-10T03:29:15.267Z,0.00
2018-09-10T03:30:15.281Z,0.00
2018-09-10T03:31:15.296Z,0.00
2018-09-10T03:32:15.320Z,0.00
2018-09-10T03:33:15.335Z,0.00
2018-09-10T03:34:15.360Z,0.00
2018-09-10T03:35:15.376Z,0.00
2018-09-10T03:36:15.400Z,0.00
2018-09-10T03:37:15.413Z,0.00
2018-09-10T03:38:15.440Z,0.00
2018-09-10T03:39:15.459Z,0.00
2018-09-10T03:40:15.490Z,0.00
2018-09-10T03:41:15.492Z,0.00
2018-09-10T03:42:15.505Z,0.00
2018-09-10T03:43:15.532Z,0.00
2018-09-10T03:44:15.545Z,0.00
2018-09-10T03:45:15.572Z,0.00
2018-09-10T03:46:15.583Z,0.00
2018-09-10T03:47:15.657Z,0.00
2018-09-10T03:48:15.624Z,0.00
2018-09-10T03:49:15.649Z,0.00
2018-09-10T03:50:15.676Z,0.00
2018-09-10T03:51:15.689Z,0.00
2018-09-10T03:52:15.703Z,0.00
2018-09-10T03:53:15.716Z,0.00
2018-09-10T03:54:15.744Z,0.00
2018-09-10T03:55:15.756Z,0.00
2018-09-10T03:56:15.781Z,0.00
2018-09-10T03:57:15.795Z,0.00
2018-09-10T03:58:15.820Z,0.00
2018-09-10T03:59:15.835Z,0.00
2018-09-10T04:00:15.863Z,0.00
2018-09-10T04:01:15.872Z,0.00
2018-09-10T04:02:15.887Z,0.00
2018-09-10T04:03:15.912Z,0.00
2018-09-10T04:04:15.926Z,0.00
2018-09-10T04:05:15.951Z,0.00
2018-09-10T04:06:15.968Z,0.00
2018-09-10T04:07:15.992Z,0.00
2018-09-10T04:08:16.005Z,0.00
2018-09-10T04:09:16.036Z,0.00
2018-09-10T04:10:16.047Z,0.00
2018-09-10T04:11:16.058Z,0.00
2018-09-10T04:12:16.084Z,0.00
2018-09-10T04:13:16.098Z,0.00
2018-09-10T04:14:16.124Z,0.00
2018-09-10T04:15:16.135Z,0.00
2018-09-10T04:16:16.164Z,0.00
2018-09-10T04:17:16.244Z,0.00
2018-09-10T04:18:16.189Z,0.00
2018-09-10T04:19:16.216Z,5.63
2018-09-10T04:20:16.229Z,5.63
2018-09-10T04:21:16.256Z,5.63
2018-09-10T04:22:16.267Z,5.63
2018-09-10T04:23:16.293Z,5.63
2018-09-10T04:24:16.308Z,5.63
2018-09-10T04:25:16.334Z,5.63
2018-09-10T04:26:16.346Z,11.25
2018-09-10T04:27:16.361Z,11.25
2018-09-10T04:28:16.389Z,11.25
2018-09-10T04:29:16.412Z,11.25
2018-09-10T04:30:16.445Z,11.25
2018-09-10T04:31:16.439Z,11.25
2018-09-10T04:32:16.466Z,16.88
2018-09-10T04:33:16.492Z,16.88
2018-09-10T04:34:16.492Z,16.88
2018-09-10T04:35:16.520Z,16.88
2018-09-10T04:36:16.556Z,16.88
2018-09-10T04:37:16.558Z,22.50
2018-09-10T04:38:16.573Z,22.50
2018-09-10T04:39:16.597Z,28.13
2018-09-10T04:40:16.610Z,28.13
2018-09-10T04:41:16.636Z,33.75
2018-09-10T04:42:16.683Z,33.75
2018-09-10T04:43:16.663Z,39.38
2018-09-10T04:44:16.690Z,39.38
2018-09-10T04:45:16.707Z,45.00
2018-09-10T04:46:16.731Z,45.00
2018-09-10T04:47:16.742Z,50.63
2018-09-10T04:48:16.768Z,50.63
2018-09-10T04:49:16.785Z,50.63
2018-09-10T04:50:16.796Z,56.25
2018-09-10T04:51:16.828Z,56.25
2018-09-10T04:52:16.836Z,61.88
2018-09-10T04:53:16.861Z,67.50
2018-09-10T04:54:16.874Z,67.50
2018-09-10T04:55:16.900Z,73.13
2018-09-10T04:56:16.918Z,73.13
2018-09-10T04:57:16.928Z,73.13
2018-09-10T04:58:16.968Z,78.75
2018-09-10T04:59:16.967Z,78.75
2018-09-10T05:00:16.995Z,78.75
2018-09-10T05:01:17.005Z,78.75
2018-09-10T05:02:17.031Z,78.75
2018-09-10T05:03:17.045Z,78.75
2018-09-10T05:04:17.079Z,84.38
2018-09-10T05:05:17.088Z,84.38
2018-09-10T05:06:17.099Z,84.38
2018-09-10T05:07:17.124Z,84.38
2018-09-10T05:08:17.138Z,84.38
2018-09-10T05:09:17.165Z,84.38
2018-09-10T05:10:17.183Z,90.00
2018-09-10T05:11:17.205Z,90.00
2018-09-10T05:12:17.220Z,95.63
2018-09-10T05:13:17.242Z,95.63
2018-09-10T05:14:17.257Z,101.25
2018-09-10T05:15:17.270Z,106.88
2018-09-10T05:16:17.300Z,106.88
2018-09-10T05:17:17.309Z,112.50
2018-09-10T05:18:17.391Z,118.13
2018-09-10T05:19:17.347Z,123.75
2018-09-10T05:20:17.374Z,123.75
2018-09-10T05:21:17.388Z,129.38
2018-09-10T05:22:17.414Z,129.38
2018-09-10T05:23:17.426Z,129.38
2018-09-10T05:24:17.467Z,129.38
2018-09-10T05:25:17.467Z,129.38
2018-09-10T05:26:17.483Z,129.38
2018-09-10T05:27:17.506Z,129.38
2018-09-10T05:28:17.650Z,129.38
2018-09-10T05:29:17.545Z,135.00
2018-09-10T05:30:17.572Z,135.00
2018-09-10T05:31:17.597Z,140.63
2018-09-10T05:32:17.598Z,140.63
2018-09-10T05:33:17.624Z,146.25
2018-09-10T05:34:17.637Z,146.25
2018-09-10T05:35:17.664Z,151.88
2018-09-10T05:36:17.678Z,151.88
2018-09-10T05:37:17.702Z,157.50
2018-09-10T05:38:17.716Z,163.13
2018-09-10T05:39:17.755Z,163.13
2018-09-10T05:40:17.756Z,168.75
2018-09-10T05:41:17.786Z,168.75
2018-09-10T05:42:17.795Z,163.13
2018-09-10T05:43:17.812Z,163.13
2018-09-10T05:44:17.836Z,157.50
2018-09-10T05:45:17.848Z,157.50
2018-09-10T05:46:17.886Z,151.88
2018-09-10T05:47:17.890Z,146.25
2018-09-10T05:48:17.917Z,140.63
2018-09-10T05:49:17.927Z,140.63
2018-09-10T05:50:17.953Z,140.63
2018-09-10T05:51:17.974Z,140.63
2018-09-10T05:52:17.994Z,140.63
2018-09-10T05:53:18.048Z,140.63
2018-09-10T05:54:18.032Z,135.00
2018-09-10T05:55:18.046Z,135.00
2018-09-10T05:56:18.072Z,135.00
2018-09-10T05:57:18.084Z,140.63
2018-09-10T05:58:18.110Z,140.63
2018-09-10T05:59:18.126Z,146.25
2018-09-10T06:00:18.152Z,151.88
2018-09-10T06:01:18.165Z,157.50
2018-09-10T06:02:18.192Z,168.75
2018-09-10T06:03:18.204Z,180.00
2018-09-10T06:04:18.230Z,196.88
2018-09-10T06:05:18.243Z,213.75
2018-09-10T06:06:18.268Z,241.88
2018-09-10T06:07:18.282Z,270.00
2018-09-10T06:08:18.309Z,292.50
2018-09-10T06:09:18.321Z,320.63
2018-09-10T06:10:18.351Z,343.13
2018-09-10T06:11:18.362Z,360.00
2018-09-10T06:12:18.387Z,376.88
2018-09-10T06:13:18.401Z,388.13
2018-09-10T06:14:18.426Z,382.50
2018-09-10T06:15:18.440Z,382.50
2018-09-10T06:16:18.467Z,393.75
2018-09-10T06:17:18.478Z,399.38
2018-09-10T06:18:18.505Z,405.00
2018-09-10T06:19:18.518Z,433.13
2018-09-10T06:20:18.551Z,455.63
2018-09-10T06:21:18.557Z,466.88
2018-09-10T06:22:18.583Z,478.13
2018-09-10T06:23:18.598Z,489.38
2018-09-10T06:24:18.624Z,472.50
2018-09-10T06:25:18.637Z,461.25
2018-09-10T06:26:18.663Z,455.63
2018-09-10T06:27:18.743Z,438.75
2018-09-10T06:28:18.702Z,433.13
2018-09-10T06:29:18.728Z,438.75
2018-09-10T06:30:18.832Z,433.13
2018-09-10T06:31:18.767Z,427.50
2018-09-10T06:32:18.780Z,410.63
2018-09-10T06:33:18.808Z,399.38
2018-09-10T06:34:18.868Z,399.38
2018-09-10T06:35:18.846Z,399.38
2018-09-10T06:36:18.872Z,410.63
2018-09-10T06:37:18.887Z,427.50
2018-09-10T06:38:18.912Z,438.75
2018-09-10T06:39:18.926Z,461.25
2018-09-10T06:40:18.951Z,478.13
2018-09-10T06:41:18.976Z,500.63
2018-09-10T06:42:18.990Z,517.50
2018-09-10T06:43:19.017Z,528.75
2018-09-10T06:44:19.042Z,545.63
2018-09-10T06:45:19.055Z,562.50
2018-09-10T06:46:19.081Z,568.13
2018-09-10T06:47:19.107Z,562.50
2018-09-10T06:48:19.125Z,556.88
2018-09-10T06:49:19.148Z,528.75
2018-09-10T06:50:19.160Z,517.50
2018-09-10T06:51:19.186Z,506.25
2018-09-10T06:52:19.212Z,489.38
2018-09-10T06:53:19.282Z,483.75
2018-09-10T06:54:19.255Z,450.00
2018-09-10T06:55:19.278Z,421.88
2018-09-10T06:56:19.292Z,399.38
2018-09-10T06:57:19.329Z,371.25
2018-09-10T06:58:19.343Z,354.38
2018-09-10T06:59:19.378Z,337.50
2018-09-10T07:00:19.463Z,320.63
2018-09-10T07:01:19.409Z,315.00
2018-09-10T07:02:19.435Z,309.38
2018-09-10T07:03:19.448Z,315.00
2018-09-10T07:04:19.487Z,320.63
2018-09-10T07:05:19.499Z,326.25
2018-09-10T07:06:19.519Z,320.63
2018-09-10T07:07:19.539Z,286.88
2018-09-10T07:08:19.566Z,292.50
2018-09-10T07:09:19.597Z,292.50
2018-09-10T07:10:19.618Z,298.13
2018-09-10T07:11:19.630Z,343.13
2018-09-10T07:12:19.656Z,393.75
2018-09-10T07:13:19.671Z,511.88
2018-09-10T07:14:19.696Z,455.63
2018-09-10T07:15:19.724Z,433.13
2018-09-10T07:16:19.737Z,466.88
2018-09-10T07:17:19.774Z,500.63
2018-09-10T07:18:19.789Z,568.13
2018-09-10T07:19:19.806Z,635.63
2018-09-10T07:20:19.829Z,697.50
2018-09-10T07:21:19.854Z,748.13
2018-09-10T07:22:19.867Z,860.63
2018-09-10T07:23:19.894Z,984.38
2018-09-10T07:24:19.917Z,843.75
2018-09-10T07:25:19.943Z,798.75
2018-09-10T07:26:19.958Z,798.75
2018-09-10T07:27:19.983Z,765.00
2018-09-10T07:28:20.010Z,748.13
2018-09-10T07:29:20.036Z,810.00
2018-09-10T07:30:20.050Z,781.88
2018-09-10T07:31:20.074Z,736.88
2018-09-10T07:32:20.100Z,635.63
2018-09-10T07:33:20.126Z,630.00
2018-09-10T07:34:20.152Z,624.38
2018-09-10T07:35:20.166Z,607.50
2018-09-10T07:36:20.193Z,579.38
2018-09-10T07:37:20.217Z,680.63
2018-09-10T07:38:20.244Z,916.88
2018-09-10T07:39:20.270Z,1063.13
2018-09-10T07:40:20.296Z,1344.38
2018-09-10T07:41:20.309Z,770.63
2018-09-10T07:42:20.336Z,770.63
2018-09-10T07:43:20.374Z,511.88
2018-09-10T07:44:20.410Z,483.75
2018-09-10T07:45:20.413Z,450.00
2018-09-10T07:46:20.452Z,444.38
2018-09-10T07:47:20.453Z,410.63
2018-09-10T07:48:20.480Z,382.50
2018-09-10T07:49:20.505Z,360.00
2018-09-10T07:50:20.606Z,326.25
2018-09-10T07:51:20.560Z,309.38
2018-09-10T07:52:20.583Z,292.50
2018-09-10T07:53:20.596Z,275.63
2018-09-10T07:54:20.622Z,270.00
2018-09-10T07:55:20.647Z,264.38
2018-09-10T07:56:20.677Z,264.38
2018-09-10T07:57:20.699Z,275.63
2018-09-10T07:58:20.725Z,270.00
2018-09-10T07:59:20.743Z,270.00
2018-09-10T08:00:20.769Z,275.63
2018-09-10T08:01:20.791Z,275.63
2018-09-10T08:02:20.817Z,275.63
2018-09-10T08:03:20.843Z,275.63
2018-09-10T08:04:20.869Z,275.63
2018-09-10T08:05:20.882Z,275.63
2018-09-10T08:06:20.907Z,281.25
2018-09-10T08:07:20.934Z,281.25
2018-09-10T08:08:20.972Z,281.25
2018-09-10T08:09:21.080Z,286.88
2018-09-10T08:10:21.001Z,292.50
2018-09-10T08:11:21.025Z,292.50
2018-09-10T08:12:21.051Z,292.50
2018-09-10T08:13:21.078Z,292.50
2018-09-10T08:14:21.104Z,298.13
2018-09-10T08:15:21.129Z,298.13
2018-09-10T08:16:21.147Z,303.75
2018-09-10T08:17:21.168Z,309.38
2018-09-10T08:18:21.194Z,315.00
2018-09-10T08:19:21.222Z,326.25
2018-09-10T08:20:21.235Z,331.88
2018-09-10T08:21:21.260Z,343.13
2018-09-10T08:22:21.285Z,348.75
2018-09-10T08:23:21.312Z,360.00
2018-09-10T08:24:21.473Z,371.25
2018-09-10T08:25:21.364Z,376.88
2018-09-10T08:26:21.376Z,388.13
2018-09-10T08:27:21.402Z,405.00
2018-09-10T08:28:21.428Z,416.25
2018-09-10T08:29:21.456Z,427.50
2018-09-10T08:30:21.527Z,438.75
2018-09-10T08:31:21.495Z,455.63
2018-09-10T08:32:21.523Z,466.88
2018-09-10T08:33:21.549Z,478.13
2018-09-10T08:34:21.575Z,489.38
2018-09-10T08:35:21.599Z,506.25
2018-09-10T08:36:21.624Z,528.75
2018-09-10T08:37:21.650Z,545.63
2018-09-10T08:38:21.666Z,568.13
2018-09-10T08:39:21.689Z,601.88
2018-09-10T08:40:21.715Z,624.38
2018-09-10T08:41:21.991Z,652.50
2018-09-10T08:42:21.767Z,680.63
2018-09-10T08:43:21.807Z,714.38
2018-09-10T08:44:21.819Z,725.63
2018-09-10T08:45:21.835Z,759.38
2018-09-10T08:46:21.859Z,787.50
2018-09-10T08:47:21.885Z,821.25
2018-09-10T08:48:21.987Z,855.00
2018-09-10T08:49:21.937Z,883.13
2018-09-10T08:50:21.964Z,905.63
2018-09-10T08:51:21.989Z,928.13
2018-09-10T08:52:22.015Z,950.63
2018-09-10T08:53:22.045Z,973.13
2018-09-10T08:54:22.122Z,995.63
2018-09-10T08:55:22.175Z,1012.50
2018-09-10T08:56:22.167Z,1035.00
2018-09-10T08:57:22.147Z,1035.00
2018-09-10T08:58:22.170Z,1035.00
2018-09-10T08:59:22.196Z,1035.00
2018-09-10T09:00:22.266Z,1035.00
2018-09-10T09:01:22.248Z,1035.00
2018-09-10T09:02:22.275Z,1018.13
2018-09-10T09:03:22.301Z,1012.50
2018-09-10T09:04:22.326Z,995.63
2018-09-10T09:05:22.352Z,990.00
2018-09-10T09:06:22.413Z,990.00
2018-09-10T09:07:22.405Z,990.00
2018-09-10T09:08:22.431Z,984.38
2018-09-10T09:09:22.456Z,990.00
2018-09-10T09:10:22.482Z,973.13
2018-09-10T09:11:22.519Z,961.88
2018-09-10T09:12:22.545Z,945.00
2018-09-10T09:13:22.585Z,933.75
2018-09-10T09:14:22.598Z,911.25
2018-09-10T09:15:22.623Z,894.38
2018-09-10T09:16:22.650Z,871.88
2018-09-10T09:17:22.726Z,849.38
2018-09-10T09:18:22.704Z,832.50
2018-09-10T09:19:22.741Z,815.63
2018-09-10T09:20:22.766Z,810.00
2018-09-10T09:21:22.792Z,804.38
2018-09-10T09:22:22.818Z,798.75
2018-09-10T09:23:22.875Z,804.38
2018-09-10T09:24:22.870Z,798.75
2018-09-10T09:25:22.908Z,804.38
2018-09-10T09:26:22.934Z,810.00
2018-09-10T09:27:22.975Z,815.63
2018-09-10T09:28:22.986Z,821.25
2018-09-10T09:29:23.012Z,826.88
2018-09-10T09:30:23.081Z,832.50
2018-09-10T09:31:23.077Z,832.50
2018-09-10T09:32:23.104Z,843.75
2018-09-10T09:33:23.130Z,843.75
2018-09-10T09:34:23.155Z,843.75
2018-09-10T09:35:23.181Z,832.50
2018-09-10T09:36:23.265Z,821.25
2018-09-10T09:37:23.244Z,810.00
2018-09-10T09:38:23.270Z,798.75
2018-09-10T09:39:23.297Z,793.13
2018-09-10T09:40:23.322Z,793.13
2018-09-10T09:41:23.361Z,810.00
2018-09-10T09:42:23.389Z,815.63
2018-09-10T09:43:23.515Z,838.13
2018-09-10T09:44:23.439Z,871.88
2018-09-10T09:45:23.466Z,894.38
2018-09-10T09:46:23.491Z,916.88
2018-09-10T09:47:23.532Z,950.63
2018-09-10T09:48:23.555Z,984.38
2018-09-10T09:49:23.594Z,1001.25
2018-09-10T09:50:23.606Z,1018.13
2018-09-10T09:51:23.633Z,1023.75
2018-09-10T09:52:23.672Z,1035.00
2018-09-10T09:53:23.697Z,1046.25
2018-09-10T09:54:23.729Z,1068.75
2018-09-10T09:55:23.749Z,1085.63
2018-09-10T09:56:23.779Z,1102.50
2018-09-10T09:57:23.814Z,1113.75
2018-09-10T09:58:23.841Z,1119.38
2018-09-10T09:59:23.868Z,1102.50
2018-09-10T10:00:23.892Z,1096.88
2018-09-10T10:01:23.934Z,1091.25
2018-09-10T10:02:23.956Z,1074.38
2018-09-10T10:03:23.986Z,1057.50
2018-09-10T10:04:24.012Z,1046.25
2018-09-10T10:05:24.047Z,1029.38
2018-09-10T10:06:24.072Z,1018.13
2018-09-10T10:07:24.099Z,1001.25
2018-09-10T10:08:24.124Z,995.63
2018-09-10T10:09:24.163Z,995.63
2018-09-10T10:10:24.190Z,1001.25
2018-09-10T10:11:24.224Z,1006.88
2018-09-10T10:12:24.346Z,1012.50
2018-09-10T10:13:24.278Z,1018.13
2018-09-10T10:14:24.304Z,1012.50
2018-09-10T10:15:24.330Z,990.00
2018-09-10T10:16:24.439Z,967.50
2018-09-10T10:17:24.396Z,956.25
2018-09-10T10:18:24.421Z,933.75
2018-09-10T10:19:24.471Z,916.88
2018-09-10T10:20:24.486Z,883.13
2018-09-10T10:21:24.511Z,866.25
2018-09-10T10:22:24.539Z,860.63
2018-09-10T10:23:24.576Z,871.88
2018-09-10T10:24:24.602Z,905.63
2018-09-10T10:25:24.628Z,950.63
2018-09-10T10:26:24.666Z,1006.88
2018-09-10T10:27:24.692Z,1051.88
2018-09-10T10:28:24.718Z,1085.63
2018-09-10T10:29:24.744Z,1113.75
2018-09-10T10:30:24.784Z,1141.88
2018-09-10T10:31:24.809Z,1186.88
2018-09-10T10:32:24.835Z,1209.38
2018-09-10T10:33:24.872Z,1226.25
2018-09-10T10:34:24.898Z,1243.13
2018-09-10T10:35:24.924Z,1282.50
2018-09-10T10:36:24.951Z,1344.38
2018-09-10T10:37:24.990Z,1473.75
2018-09-10T10:38:25.016Z,1811.25
2018-09-10T10:39:25.046Z,2131.88
2018-09-10T10:40:25.080Z,2109.38
2018-09-10T10:41:25.106Z,1800.00
2018-09-10T10:42:25.132Z,1957.50
2018-09-10T10:43:25.170Z,1653.75
2018-09-10T10:44:25.196Z,1344.38
2018-09-10T10:45:25.224Z,1226.25
2018-09-10T10:46:25.260Z,1198.13
2018-09-10T10:47:25.344Z,1215.00
2018-09-10T10:48:25.314Z,1102.50
2018-09-10T10:49:25.351Z,1040.63
2018-09-10T10:50:25.377Z,1012.50
2018-09-10T10:51:25.415Z,973.13
2018-09-10T10:52:25.443Z,950.63
2018-09-10T10:53:25.470Z,939.38
2018-09-10T10:54:25.506Z,950.63
2018-09-10T10:55:25.533Z,961.88
2018-09-10T10:56:25.570Z,956.25
2018-09-10T10:57:25.596Z,939.38
2018-09-10T10:58:25.623Z,928.13
2018-09-10T10:59:25.661Z,928.13
2018-09-10T11:00:25.689Z,933.75
2018-09-10T11:01:25.713Z,1006.88
2018-09-10T11:02:25.750Z,1085.63
2018-09-10T11:03:25.777Z,1125.00
2018-09-10T11:04:25.803Z,1147.50
2018-09-10T11:05:25.842Z,1175.63
2018-09-10T11:06:25.868Z,1243.13
2018-09-10T11:07:25.894Z,1254.38
2018-09-10T11:08:25.932Z,1276.88
2018-09-10T11:09:25.957Z,1271.25
2018-09-10T11:10:25.984Z,1231.88
2018-09-10T11:11:26.022Z,1158.75
2018-09-10T11:12:26.048Z,1051.88
2018-09-10T11:13:26.087Z,928.13
2018-09-10T11:14:26.111Z,815.63
2018-09-10T11:15:26.138Z,725.63
2018-09-10T11:16:26.164Z,680.63
2018-09-10T11:17:26.202Z,680.63
2018-09-10T11:18:26.229Z,697.50
2018-09-10T11:19:26.255Z,742.50
2018-09-10T11:20:26.292Z,787.50
2018-09-10T11:21:26.319Z,838.13
2018-09-10T11:22:26.400Z,888.75
2018-09-10T11:23:26.385Z,933.75
2018-09-10T11:24:26.410Z,956.25
2018-09-10T11:25:26.435Z,956.25
2018-09-10T11:26:26.473Z,967.50
2018-09-10T11:27:26.502Z,945.00
2018-09-10T11:28:26.524Z,956.25
2018-09-10T11:29:26.564Z,973.13
2018-09-10T11:30:26.599Z,1001.25
2018-09-10T11:31:26.616Z,1085.63
2018-09-10T11:32:26.653Z,1091.25
2018-09-10T11:33:26.680Z,1198.13
2018-09-10T11:34:26.705Z,1338.75
2018-09-10T11:35:26.732Z,1833.75
2018-09-10T11:36:26.773Z,1344.38
2018-09-10T11:37:26.799Z,1428.75
2018-09-10T11:38:26.826Z,1985.63
2018-09-10T11:39:26.860Z,1608.75
2018-09-10T11:40:26.891Z,1743.75
2018-09-10T11:41:26.918Z,1918.13
2018-09-10T11:42:26.940Z,1710.00
2018-09-10T11:43:26.977Z,1428.75
2018-09-10T11:44:27.004Z,1288.13
2018-09-10T11:45:27.041Z,1170.00
2018-09-10T11:46:27.072Z,1046.25
2018-09-10T11:47:27.094Z,984.38
2018-09-10T11:48:27.136Z,978.75
2018-09-10T11:49:27.159Z,1029.38
2018-09-10T11:50:27.189Z,1158.75
2018-09-10T11:51:27.221Z,1383.75
2018-09-10T11:52:27.261Z,1372.50
2018-09-10T11:53:27.274Z,1299.38
2018-09-10T11:54:27.312Z,1237.50
2018-09-10T11:55:27.354Z,1175.63
2018-09-10T11:56:27.379Z,1119.38
2018-09-10T11:57:27.402Z,1254.38
2018-09-10T11:58:27.429Z,1350.00
2018-09-10T11:59:27.467Z,1417.50
2018-09-10T12:00:27.495Z,1400.63
2018-09-10T12:01:27.520Z,1310.63
2018-09-10T12:02:27.559Z,1237.50
2018-09-10T12:03:27.583Z,1209.38
2018-09-10T12:04:27.623Z,1164.38
2018-09-10T12:05:27.648Z,1147.50
2018-09-10T12:06:27.676Z,1226.25
2018-09-10T12:07:27.712Z,1209.38
2018-09-10T12:08:27.790Z,1141.88
2018-09-10T12:09:27.765Z,1102.50
2018-09-10T12:10:27.803Z,1102.50
2018-09-10T12:11:27.829Z,1125.00
2018-09-10T12:12:27.881Z,1141.88
2018-09-10T12:13:27.894Z,1141.88
2018-09-10T12:14:27.919Z,1096.88
2018-09-10T12:15:27.957Z,1040.63
2018-09-10T12:16:27.983Z,973.13
2018-09-10T12:17:28.022Z,916.88
2018-09-10T12:18:28.046Z,866.25
2018-09-10T12:19:28.073Z,832.50
2018-09-10T12:20:28.114Z,821.25
2018-09-10T12:21:28.167Z,815.63
2018-09-10T12:22:28.176Z,815.63
2018-09-10T12:23:28.202Z,810.00
2018-09-10T12:24:28.228Z,810.00
2018-09-10T12:25:28.267Z,815.63
2018-09-10T12:26:28.348Z,815.63
2018-09-10T12:27:28.329Z,815.63
2018-09-10T12:28:28.368Z,815.63
2018-09-10T12:29:28.382Z,804.38
2018-09-10T12:30:28.422Z,793.13
2018-09-10T12:31:28.447Z,770.63
2018-09-10T12:32:28.479Z,736.88
2018-09-10T12:33:28.524Z,686.25
2018-09-10T12:34:28.538Z,641.25
2018-09-10T12:35:28.562Z,613.13
2018-09-10T12:36:28.603Z,601.88
2018-09-10T12:37:28.628Z,601.88
2018-09-10T12:38:28.654Z,607.50
2018-09-10T12:39:28.716Z,613.13
2018-09-10T12:40:28.718Z,624.38
2018-09-10T12:41:28.756Z,635.63
2018-09-10T12:42:28.782Z,658.13
2018-09-10T12:43:28.808Z,669.38